sensor_id;sensor_type;location;lat;lon;timestamp;pressure;altitude;pressure_sealevel;temperature;humidity
58223;BME280;44020;50.890;15.796;2023-12-29T00:00:17;97353.33;;;5.25;88.57
58223;BME280;44020;50.890;15.796;2023-12-29T00:03:05;97353.05;;;5.17;88.88
58223;BME280;44020;50.890;15.796;2023-12-29T00:05:32;97343.16;;;5.11;88.82
58223;BME280;44020;50.890;15.796;2023-12-29T00:07:59;97348.20;;;5.06;88.60
58223;BME280;44020;50.890;15.796;2023-12-29T00:10:26;97354.44;;;5.01;88.78
58223;BME280;44020;50.890;15.796;2023-12-29T00:12:53;97354.33;;;4.96;88.68
58223;BME280;44020;50.890;15.796;2023-12-29T00:15:20;97355.73;;;4.90;88.54
58223;BME280;44020;50.890;15.796;2023-12-29T00:17:48;97355.62;;;4.82;88.63
58223;BME280;44020;50.890;15.796;2023-12-29T00:20:15;97345.86;;;4.77;88.80
58223;BME280;44020;50.890;15.796;2023-12-29T00:22:42;97349.84;;;4.71;88.77
58223;BME280;44020;50.890;15.796;2023-12-29T00:25:10;97345.20;;;4.66;88.79
58223;BME280;44020;50.890;15.796;2023-12-29T00:27:38;97345.94;;;4.58;88.71
58223;BME280;44020;50.890;15.796;2023-12-29T00:30:05;97346.92;;;4.53;88.98
58223;BME280;44020;50.890;15.796;2023-12-29T00:32:33;97344.33;;;4.49;89.01
58223;BME280;44020;50.890;15.796;2023-12-29T00:35:00;97339.99;;;4.44;88.98
58223;BME280;44020;50.890;15.796;2023-12-29T00:37:27;97345.09;;;4.41;89.09
58223;BME280;44020;50.890;15.796;2023-12-29T00:39:55;97347.75;;;4.37;89.17
58223;BME280;44020;50.890;15.796;2023-12-29T00:42:22;97349.78;;;4.35;89.08
58223;BME280;44020;50.890;15.796;2023-12-29T00:44:49;97344.13;;;4.32;89.08
58223;BME280;44020;50.890;15.796;2023-12-29T00:47:16;97348.71;;;4.28;89.05
58223;BME280;44020;50.890;15.796;2023-12-29T00:49:46;97348.26;;;4.23;89.13
58223;BME280;44020;50.890;15.796;2023-12-29T00:52:13;97347.29;;;4.22;89.33
58223;BME280;44020;50.890;15.796;2023-12-29T00:54:40;97343.70;;;4.20;89.25
58223;BME280;44020;50.890;15.796;2023-12-29T00:57:08;97340.58;;;4.16;89.20
58223;BME280;44020;50.890;15.796;2023-12-29T00:59:37;97340.63;;;4.11;89.17
58223;BME280;44020;50.890;15.796;2023-12-29T01:02:07;97346.92;;;4.08;89.38
58223;BME280;44020;50.890;15.796;2023-12-29T01:04:37;97340.52;;;4.06;89.43
58223;BME280;44020;50.890;15.796;2023-12-29T01:07:06;97338.02;;;4.04;89.42
58223;BME280;44020;50.890;15.796;2023-12-29T01:09:37;97338.33;;;4.01;89.60
58223;BME280;44020;50.890;15.796;2023-12-29T01:12:07;97340.55;;;4.02;89.80
58223;BME280;44020;50.890;15.796;2023-12-29T01:14:34;97331.02;;;4.06;90.22
58223;BME280;44020;50.890;15.796;2023-12-29T01:17:02;97324.55;;;4.09;90.16
58223;BME280;44020;50.890;15.796;2023-12-29T01:19:29;97319.94;;;4.10;90.20
58223;BME280;44020;50.890;15.796;2023-12-29T01:21:56;97319.98;;;4.09;90.06
58223;BME280;44020;50.890;15.796;2023-12-29T01:24:23;97318.93;;;4.12;90.44
58223;BME280;44020;50.890;15.796;2023-12-29T01:26:51;97318.77;;;4.19;90.77
58223;BME280;44020;50.890;15.796;2023-12-29T01:29:18;97309.43;;;4.26;90.90
58223;BME280;44020;50.890;15.796;2023-12-29T01:31:45;97305.40;;;4.36;90.87
58223;BME280;44020;50.890;15.796;2023-12-29T01:34:12;97302.01;;;4.37;90.54
58223;BME280;44020;50.890;15.796;2023-12-29T01:36:39;97306.98;;;4.40;90.55
58223;BME280;44020;50.890;15.796;2023-12-29T01:39:07;97300.64;;;4.41;90.47
58223;BME280;44020;50.890;15.796;2023-12-29T01:41:34;97299.18;;;4.37;90.25
58223;BME280;44020;50.890;15.796;2023-12-29T01:46:29;97315.48;;;4.31;90.22
58223;BME280;44020;50.890;15.796;2023-12-29T01:48:58;97309.81;;;4.29;90.23
58223;BME280;44020;50.890;15.796;2023-12-29T01:51:26;97307.91;;;4.25;90.12
58223;BME280;44020;50.890;15.796;2023-12-29T01:53:55;97291.11;;;4.20;90.35
58223;BME280;44020;50.890;15.796;2023-12-29T01:56:23;97298.85;;;4.20;90.41
58223;BME280;44020;50.890;15.796;2023-12-29T01:58:51;97292.67;;;4.21;90.57
58223;BME280;44020;50.890;15.796;2023-12-29T02:01:18;97293.60;;;4.20;90.34
58223;BME280;44020;50.890;15.796;2023-12-29T02:03:46;97284.38;;;4.18;90.40
58223;BME280;44020;50.890;15.796;2023-12-29T02:06:15;97275.92;;;4.14;90.31
58223;BME280;44020;50.890;15.796;2023-12-29T02:08:43;97272.02;;;4.12;90.22
58223;BME280;44020;50.890;15.796;2023-12-29T02:11:10;97258.56;;;4.10;90.25
58223;BME280;44020;50.890;15.796;2023-12-29T02:13:37;97255.58;;;4.07;90.10
58223;BME280;44020;50.890;15.796;2023-12-29T02:16:16;97247.78;;;4.05;90.01
58223;BME280;44020;50.890;15.796;2023-12-29T02:18:46;97249.71;;;4.01;90.08
58223;BME280;44020;50.890;15.796;2023-12-29T02:21:15;97251.58;;;3.99;90.23
58223;BME280;44020;50.890;15.796;2023-12-29T02:23:42;97250.05;;;3.99;90.16
58223;BME280;44020;50.890;15.796;2023-12-29T02:26:12;97250.15;;;3.96;89.96
58223;BME280;44020;50.890;15.796;2023-12-29T02:28:45;97256.56;;;3.91;89.82
58223;BME280;44020;50.890;15.796;2023-12-29T02:31:18;97251.45;;;3.84;89.72
58223;BME280;44020;50.890;15.796;2023-12-29T02:33:47;97254.20;;;3.79;89.86
58223;BME280;44020;50.890;15.796;2023-12-29T02:36:17;97249.42;;;3.76;90.11
58223;BME280;44020;50.890;15.796;2023-12-29T02:38:44;97246.33;;;3.75;89.99
58223;BME280;44020;50.890;15.796;2023-12-29T02:41:12;97243.30;;;3.72;89.98
58223;BME280;44020;50.890;15.796;2023-12-29T02:43:41;97241.89;;;3.68;90.57
58223;BME280;44020;50.890;15.796;2023-12-29T02:46:08;97229.48;;;3.81;91.74
58223;BME280;44020;50.890;15.796;2023-12-29T02:48:36;97228.67;;;3.97;91.61
58223;BME280;44020;50.890;15.796;2023-12-29T02:51:03;97229.10;;;4.16;92.28
58223;BME280;44020;50.890;15.796;2023-12-29T02:53:30;97224.81;;;4.27;92.37
58223;BME280;44020;50.890;15.796;2023-12-29T02:55:58;97219.63;;;4.45;92.49
58223;BME280;44020;50.890;15.796;2023-12-29T02:58:25;97208.28;;;4.63;92.50
58223;BME280;44020;50.890;15.796;2023-12-29T03:00:52;97200.00;;;4.73;92.32
58223;BME280;44020;50.890;15.796;2023-12-29T03:03:19;97187.08;;;4.81;92.23
58223;BME280;44020;50.890;15.796;2023-12-29T03:05:46;97187.81;;;4.90;92.19
58223;BME280;44020;50.890;15.796;2023-12-29T03:08:13;97187.44;;;4.96;91.93
58223;BME280;44020;50.890;15.796;2023-12-29T03:10:41;97184.79;;;5.06;92.02
58223;BME280;44020;50.890;15.796;2023-12-29T03:13:08;97186.61;;;5.20;91.54
58223;BME280;44020;50.890;15.796;2023-12-29T03:15:35;97186.08;;;5.36;91.35
58223;BME280;44020;50.890;15.796;2023-12-29T03:18:02;97187.15;;;5.48;91.18
58223;BME280;44020;50.890;15.796;2023-12-29T03:20:29;97187.10;;;5.52;90.79
58223;BME280;44020;50.890;15.796;2023-12-29T03:22:57;97180.40;;;5.58;90.40
58223;BME280;44020;50.890;15.796;2023-12-29T03:25:24;97180.00;;;5.65;90.63
58223;BME280;44020;50.890;15.796;2023-12-29T03:27:51;97188.30;;;5.67;90.35
58223;BME280;44020;50.890;15.796;2023-12-29T03:30:19;97187.20;;;5.69;90.16
58223;BME280;44020;50.890;15.796;2023-12-29T03:32:46;97182.85;;;5.71;90.05
58223;BME280;44020;50.890;15.796;2023-12-29T03:35:13;97176.26;;;5.71;89.98
58223;BME280;44020;50.890;15.796;2023-12-29T03:37:40;97165.68;;;5.74;89.97
58223;BME280;44020;50.890;15.796;2023-12-29T03:40:08;97166.09;;;5.79;90.03
58223;BME280;44020;50.890;15.796;2023-12-29T03:42:35;97163.23;;;5.86;90.05
58223;BME280;44020;50.890;15.796;2023-12-29T03:45:03;97161.79;;;5.90;89.76
58223;BME280;44020;50.890;15.796;2023-12-29T03:47:31;97163.00;;;5.90;89.71
58223;BME280;44020;50.890;15.796;2023-12-29T03:49:58;97165.98;;;5.90;89.90
58223;BME280;44020;50.890;15.796;2023-12-29T03:52:25;97172.27;;;5.94;89.71
58223;BME280;44020;50.890;15.796;2023-12-29T03:54:52;97171.59;;;5.97;89.73
58223;BME280;44020;50.890;15.796;2023-12-29T03:57:19;97162.98;;;5.99;89.56
58223;BME280;44020;50.890;15.796;2023-12-29T03:59:47;97156.17;;;6.01;89.76
58223;BME280;44020;50.890;15.796;2023-12-29T04:02:14;97154.61;;;6.07;89.91
58223;BME280;44020;50.890;15.796;2023-12-29T04:04:41;97154.92;;;6.10;89.77
58223;BME280;44020;50.890;15.796;2023-12-29T04:07:08;97149.16;;;6.12;89.63
58223;BME280;44020;50.890;15.796;2023-12-29T04:09:35;97148.09;;;6.15;89.46
58223;BME280;44020;50.890;15.796;2023-12-29T04:12:03;97139.15;;;6.15;89.52
58223;BME280;44020;50.890;15.796;2023-12-29T04:14:30;97134.83;;;6.13;89.28
58223;BME280;44020;50.890;15.796;2023-12-29T04:16:57;97134.41;;;6.14;89.54
58223;BME280;44020;50.890;15.796;2023-12-29T04:19:26;97134.77;;;6.11;89.30
58223;BME280;44020;50.890;15.796;2023-12-29T04:21:53;97140.20;;;6.12;89.37
58223;BME280;44020;50.890;15.796;2023-12-29T04:24:20;97144.30;;;6.17;89.68
58223;BME280;44020;50.890;15.796;2023-12-29T04:26:47;97142.90;;;6.19;89.24
58223;BME280;44020;50.890;15.796;2023-12-29T04:29:14;97138.38;;;6.21;89.19
58223;BME280;44020;50.890;15.796;2023-12-29T04:31:41;97138.34;;;6.22;89.29
58223;BME280;44020;50.890;15.796;2023-12-29T04:34:08;97139.94;;;6.24;89.26
58223;BME280;44020;50.890;15.796;2023-12-29T04:36:35;97138.73;;;6.33;88.90
58223;BME280;44020;50.890;15.796;2023-12-29T04:39:02;97142.69;;;6.34;88.79
58223;BME280;44020;50.890;15.796;2023-12-29T04:41:30;97143.11;;;6.33;88.83
58223;BME280;44020;50.890;15.796;2023-12-29T04:43:57;97140.30;;;6.33;89.05
58223;BME280;44020;50.890;15.796;2023-12-29T04:46:24;97136.09;;;6.35;88.97
58223;BME280;44020;50.890;15.796;2023-12-29T04:48:52;97138.19;;;6.38;88.84
58223;BME280;44020;50.890;15.796;2023-12-29T04:51:20;97136.04;;;6.41;88.79
58223;BME280;44020;50.890;15.796;2023-12-29T04:53:47;97132.76;;;6.43;88.95
58223;BME280;44020;50.890;15.796;2023-12-29T04:56:14;97124.61;;;6.44;88.55
58223;BME280;44020;50.890;15.796;2023-12-29T04:58:41;97120.55;;;6.44;88.89
58223;BME280;44020;50.890;15.796;2023-12-29T05:01:08;97120.26;;;6.43;88.55
58223;BME280;44020;50.890;15.796;2023-12-29T05:03:35;97122.96;;;6.45;88.67
58223;BME280;44020;50.890;15.796;2023-12-29T05:06:03;97123.98;;;6.48;88.98
58223;BME280;44020;50.890;15.796;2023-12-29T05:08:30;97124.66;;;6.49;88.61
58223;BME280;44020;50.890;15.796;2023-12-29T05:10:57;97119.33;;;6.52;88.70
58223;BME280;44020;50.890;15.796;2023-12-29T05:13:24;97116.83;;;6.56;88.63
58223;BME280;44020;50.890;15.796;2023-12-29T05:15:52;97121.60;;;6.55;88.48
58223;BME280;44020;50.890;15.796;2023-12-29T05:18:19;97110.34;;;6.58;88.25
58223;BME280;44020;50.890;15.796;2023-12-29T05:20:46;97109.65;;;6.57;88.33
58223;BME280;44020;50.890;15.796;2023-12-29T05:23:13;97106.77;;;6.58;88.46
58223;BME280;44020;50.890;15.796;2023-12-29T05:25:40;97111.36;;;6.61;88.22
58223;BME280;44020;50.890;15.796;2023-12-29T05:28:07;97114.04;;;6.63;87.64
58223;BME280;44020;50.890;15.796;2023-12-29T05:30:34;97120.41;;;6.63;87.48
58223;BME280;44020;50.890;15.796;2023-12-29T05:33:02;97120.59;;;6.63;87.60
58223;BME280;44020;50.890;15.796;2023-12-29T05:35:29;97121.04;;;6.64;87.64
58223;BME280;44020;50.890;15.796;2023-12-29T05:37:56;97125.48;;;6.66;87.53
58223;BME280;44020;50.890;15.796;2023-12-29T05:40:24;97130.66;;;6.71;87.21
58223;BME280;44020;50.890;15.796;2023-12-29T05:42:51;97127.36;;;6.76;86.87
58223;BME280;44020;50.890;15.796;2023-12-29T05:45:18;97126.42;;;6.79;86.71
58223;BME280;44020;50.890;15.796;2023-12-29T05:47:45;97128.77;;;6.81;86.38
58223;BME280;44020;50.890;15.796;2023-12-29T05:50:12;97126.32;;;6.81;86.59
58223;BME280;44020;50.890;15.796;2023-12-29T05:52:39;97130.40;;;6.83;86.10
58223;BME280;44020;50.890;15.796;2023-12-29T05:55:07;97129.80;;;6.84;86.26
58223;BME280;44020;50.890;15.796;2023-12-29T05:57:34;97127.94;;;6.86;86.24
58223;BME280;44020;50.890;15.796;2023-12-29T06:00:01;97131.75;;;6.86;85.89
58223;BME280;44020;50.890;15.796;2023-12-29T06:02:28;97128.92;;;6.87;86.12
58223;BME280;44020;50.890;15.796;2023-12-29T06:04:55;97126.54;;;6.88;85.85
58223;BME280;44020;50.890;15.796;2023-12-29T06:07:22;97129.36;;;6.91;85.71
58223;BME280;44020;50.890;15.796;2023-12-29T06:09:49;97131.86;;;6.94;85.41
58223;BME280;44020;50.890;15.796;2023-12-29T06:12:16;97138.10;;;6.95;85.49
58223;BME280;44020;50.890;15.796;2023-12-29T06:14:43;97123.55;;;6.99;85.17
58223;BME280;44020;50.890;15.796;2023-12-29T06:17:10;97118.54;;;7.00;84.96
58223;BME280;44020;50.890;15.796;2023-12-29T06:19:37;97117.42;;;7.01;84.85
58223;BME280;44020;50.890;15.796;2023-12-29T06:22:04;97109.13;;;7.04;84.85
58223;BME280;44020;50.890;15.796;2023-12-29T06:24:32;97107.02;;;7.06;84.73
58223;BME280;44020;50.890;15.796;2023-12-29T06:27:00;97108.83;;;7.08;84.44
58223;BME280;44020;50.890;15.796;2023-12-29T06:29:27;97106.30;;;7.09;84.42
58223;BME280;44020;50.890;15.796;2023-12-29T06:31:54;97112.55;;;7.10;84.45
58223;BME280;44020;50.890;15.796;2023-12-29T06:34:21;97110.48;;;7.13;84.28
58223;BME280;44020;50.890;15.796;2023-12-29T06:36:51;97109.88;;;7.14;84.14
58223;BME280;44020;50.890;15.796;2023-12-29T06:39:18;97108.48;;;7.13;84.23
58223;BME280;44020;50.890;15.796;2023-12-29T06:41:45;97107.94;;;7.16;83.90
58223;BME280;44020;50.890;15.796;2023-12-29T06:44:12;97105.56;;;7.18;83.71
58223;BME280;44020;50.890;15.796;2023-12-29T06:46:39;97108.86;;;7.18;83.72
58223;BME280;44020;50.890;15.796;2023-12-29T06:49:08;97115.83;;;7.23;83.89
58223;BME280;44020;50.890;15.796;2023-12-29T06:51:35;97121.88;;;7.25;83.35
58223;BME280;44020;50.890;15.796;2023-12-29T06:54:08;97118.77;;;7.26;83.63
58223;BME280;44020;50.890;15.796;2023-12-29T06:56:35;97118.89;;;7.27;83.64
58223;BME280;44020;50.890;15.796;2023-12-29T06:59:02;97120.52;;;7.29;83.09
58223;BME280;44020;50.890;15.796;2023-12-29T07:01:29;97119.29;;;7.29;83.44
58223;BME280;44020;50.890;15.796;2023-12-29T07:03:56;97123.06;;;7.31;83.27
58223;BME280;44020;50.890;15.796;2023-12-29T07:06:23;97119.33;;;7.34;82.81
58223;BME280;44020;50.890;15.796;2023-12-29T07:08:50;97111.08;;;7.36;83.16
58223;BME280;44020;50.890;15.796;2023-12-29T07:11:17;97101.34;;;7.36;83.03
58223;BME280;44020;50.890;15.796;2023-12-29T07:13:45;97100.41;;;7.37;82.99
58223;BME280;44020;50.890;15.796;2023-12-29T07:16:12;97096.12;;;7.37;83.37
58223;BME280;44020;50.890;15.796;2023-12-29T07:18:39;97098.45;;;7.40;83.38
58223;BME280;44020;50.890;15.796;2023-12-29T07:21:08;97104.55;;;7.41;83.50
58223;BME280;44020;50.890;15.796;2023-12-29T07:23:35;97100.98;;;7.44;83.50
58223;BME280;44020;50.890;15.796;2023-12-29T07:26:02;97103.63;;;7.46;83.21
58223;BME280;44020;50.890;15.796;2023-12-29T07:28:31;97106.30;;;7.49;83.35
58223;BME280;44020;50.890;15.796;2023-12-29T07:30:59;97108.07;;;7.51;83.03
58223;BME280;44020;50.890;15.796;2023-12-29T07:33:26;97111.95;;;7.54;82.72
58223;BME280;44020;50.890;15.796;2023-12-29T07:35:54;97113.30;;;7.55;82.79
58223;BME280;44020;50.890;15.796;2023-12-29T07:38:22;97115.33;;;7.57;82.49
58223;BME280;44020;50.890;15.796;2023-12-29T07:40:49;97119.06;;;7.59;82.39
58223;BME280;44020;50.890;15.796;2023-12-29T07:43:16;97115.71;;;7.61;81.70
58223;BME280;44020;50.890;15.796;2023-12-29T07:45:43;97112.45;;;7.62;81.65
58223;BME280;44020;50.890;15.796;2023-12-29T07:48:10;97110.36;;;7.64;81.21
58223;BME280;44020;50.890;15.796;2023-12-29T07:50:37;97104.94;;;7.66;81.43
58223;BME280;44020;50.890;15.796;2023-12-29T07:53:06;97104.16;;;7.67;81.26
58223;BME280;44020;50.890;15.796;2023-12-29T07:55:37;97105.02;;;7.68;80.85
58223;BME280;44020;50.890;15.796;2023-12-29T07:58:05;97114.64;;;7.69;80.68
58223;BME280;44020;50.890;15.796;2023-12-29T08:00:33;97119.63;;;7.71;80.18
58223;BME280;44020;50.890;15.796;2023-12-29T08:03:00;97124.44;;;7.73;79.57
58223;BME280;44020;50.890;15.796;2023-12-29T08:05:28;97122.35;;;7.76;79.55
58223;BME280;44020;50.890;15.796;2023-12-29T08:07:56;97130.02;;;7.77;79.61
58223;BME280;44020;50.890;15.796;2023-12-29T08:10:23;97130.61;;;7.79;79.45
58223;BME280;44020;50.890;15.796;2023-12-29T08:12:50;97122.52;;;7.81;79.01
58223;BME280;44020;50.890;15.796;2023-12-29T08:15:17;97118.45;;;7.84;78.90
58223;BME280;44020;50.890;15.796;2023-12-29T08:17:44;97117.10;;;7.85;78.74
58223;BME280;44020;50.890;15.796;2023-12-29T08:20:11;97101.80;;;7.89;78.42
58223;BME280;44020;50.890;15.796;2023-12-29T08:22:38;97102.39;;;7.91;78.45
58223;BME280;44020;50.890;15.796;2023-12-29T08:25:06;97110.71;;;7.93;78.12
58223;BME280;44020;50.890;15.796;2023-12-29T08:27:33;97103.92;;;7.97;77.61
58223;BME280;44020;50.890;15.796;2023-12-29T08:30:00;97107.05;;;8.00;77.58
58223;BME280;44020;50.890;15.796;2023-12-29T08:32:27;97107.16;;;8.03;77.09
58223;BME280;44020;50.890;15.796;2023-12-29T08:34:54;97112.00;;;8.05;77.36
58223;BME280;44020;50.890;15.796;2023-12-29T08:37:22;97114.35;;;8.07;76.77
58223;BME280;44020;50.890;15.796;2023-12-29T08:39:49;97120.36;;;8.10;76.84
58223;BME280;44020;50.890;15.796;2023-12-29T08:42:16;97113.77;;;8.12;76.64
58223;BME280;44020;50.890;15.796;2023-12-29T08:44:44;97123.48;;;8.16;76.82
58223;BME280;44020;50.890;15.796;2023-12-29T08:47:11;97132.14;;;8.18;76.79
58223;BME280;44020;50.890;15.796;2023-12-29T08:49:38;97132.08;;;8.22;76.67
58223;BME280;44020;50.890;15.796;2023-12-29T08:52:08;97136.75;;;8.26;76.39
58223;BME280;44020;50.890;15.796;2023-12-29T08:54:36;97133.04;;;8.28;76.11
58223;BME280;44020;50.890;15.796;2023-12-29T08:57:06;97137.02;;;8.29;76.25
58223;BME280;44020;50.890;15.796;2023-12-29T08:59:34;97129.77;;;8.32;76.31
58223;BME280;44020;50.890;15.796;2023-12-29T09:02:01;97117.99;;;8.33;76.20
58223;BME280;44020;50.890;15.796;2023-12-29T09:04:29;97114.34;;;8.35;76.37
58223;BME280;44020;50.890;15.796;2023-12-29T09:06:56;97111.96;;;8.39;76.60
58223;BME280;44020;50.890;15.796;2023-12-29T09:09:24;97117.91;;;8.42;76.72
58223;BME280;44020;50.890;15.796;2023-12-29T09:11:51;97122.39;;;8.44;76.79
58223;BME280;44020;50.890;15.796;2023-12-29T09:14:19;97129.27;;;8.47;76.75
58223;BME280;44020;50.890;15.796;2023-12-29T09:16:46;97139.20;;;8.51;76.84
58223;BME280;44020;50.890;15.796;2023-12-29T09:19:13;97156.78;;;8.58;76.61
58223;BME280;44020;50.890;15.796;2023-12-29T09:21:41;97155.58;;;8.65;76.59
58223;BME280;44020;50.890;15.796;2023-12-29T09:24:08;97156.21;;;8.71;75.86
58223;BME280;44020;50.890;15.796;2023-12-29T09:26:35;97171.23;;;8.77;75.73
58223;BME280;44020;50.890;15.796;2023-12-29T09:29:03;97170.92;;;8.84;75.44
58223;BME280;44020;50.890;15.796;2023-12-29T09:31:30;97178.91;;;8.88;74.87
58223;BME280;44020;50.890;15.796;2023-12-29T09:33:58;97182.17;;;8.92;74.57
58223;BME280;44020;50.890;15.796;2023-12-29T09:36:25;97185.62;;;8.94;74.67
58223;BME280;44020;50.890;15.796;2023-12-29T09:38:52;97186.17;;;8.95;75.00
58223;BME280;44020;50.890;15.796;2023-12-29T09:41:20;97186.09;;;9.00;75.05
58223;BME280;44020;50.890;15.796;2023-12-29T09:43:51;97191.79;;;9.04;74.42
58223;BME280;44020;50.890;15.796;2023-12-29T09:46:21;97194.09;;;9.06;74.48
58223;BME280;44020;50.890;15.796;2023-12-29T09:48:52;97194.38;;;9.10;74.63
58223;BME280;44020;50.890;15.796;2023-12-29T09:51:22;97195.11;;;9.14;74.52
58223;BME280;44020;50.890;15.796;2023-12-29T09:53:51;97186.30;;;9.16;74.05
58223;BME280;44020;50.890;15.796;2023-12-29T09:56:19;97186.98;;;9.16;73.77
58223;BME280;44020;50.890;15.796;2023-12-29T09:58:47;97176.88;;;9.16;73.47
58223;BME280;44020;50.890;15.796;2023-12-29T10:01:17;97168.66;;;9.17;73.99
58223;BME280;44020;50.890;15.796;2023-12-29T10:03:47;97164.09;;;9.19;74.13
58223;BME280;44020;50.890;15.796;2023-12-29T10:06:25;97168.67;;;9.22;73.74
58223;BME280;44020;50.890;15.796;2023-12-29T10:08:53;97166.69;;;9.23;73.65
58223;BME280;44020;50.890;15.796;2023-12-29T10:11:22;97163.20;;;9.24;73.02
58223;BME280;44020;50.890;15.796;2023-12-29T10:13:52;97156.56;;;9.25;73.13
58223;BME280;44020;50.890;15.796;2023-12-29T10:16:39;97159.36;;;9.28;73.27
58223;BME280;44020;50.890;15.796;2023-12-29T10:22:15;97166.81;;;9.35;72.87
58223;BME280;44020;50.890;15.796;2023-12-29T10:24:45;97165.67;;;9.38;72.74
58223;BME280;44020;50.890;15.796;2023-12-29T10:27:13;97171.23;;;9.43;72.98
58223;BME280;44020;50.890;15.796;2023-12-29T10:29:41;97167.20;;;9.47;72.87
58223;BME280;44020;50.890;15.796;2023-12-29T10:32:09;97166.43;;;9.50;71.50
58223;BME280;44020;50.890;15.796;2023-12-29T10:34:36;97153.34;;;9.47;71.23
58223;BME280;44020;50.890;15.796;2023-12-29T10:37:04;97148.87;;;9.48;71.21
58223;BME280;44020;50.890;15.796;2023-12-29T10:39:36;97150.46;;;9.48;71.15
58223;BME280;44020;50.890;15.796;2023-12-29T10:42:04;97141.05;;;9.48;71.15
58223;BME280;44020;50.890;15.796;2023-12-29T10:44:36;97143.65;;;9.49;71.48
58223;BME280;44020;50.890;15.796;2023-12-29T10:47:11;97143.30;;;9.51;71.48
58223;BME280;44020;50.890;15.796;2023-12-29T10:49:41;97148.27;;;9.53;71.60
58223;BME280;44020;50.890;15.796;2023-12-29T10:52:16;97142.66;;;9.55;71.18
58223;BME280;44020;50.890;15.796;2023-12-29T10:54:43;97142.23;;;9.56;71.12
58223;BME280;44020;50.890;15.796;2023-12-29T10:57:11;97140.79;;;9.56;71.12
58223;BME280;44020;50.890;15.796;2023-12-29T10:59:39;97142.16;;;9.59;71.31
58223;BME280;44020;50.890;15.796;2023-12-29T11:02:07;97135.21;;;9.62;71.12
58223;BME280;44020;50.890;15.796;2023-12-29T11:04:41;97133.97;;;9.64;71.17
58223;BME280;44020;50.890;15.796;2023-12-29T11:07:12;97132.57;;;9.66;70.82
58223;BME280;44020;50.890;15.796;2023-12-29T11:09:39;97139.20;;;9.68;70.79
58223;BME280;44020;50.890;15.796;2023-12-29T11:12:07;97137.66;;;9.69;70.33
58223;BME280;44020;50.890;15.796;2023-12-29T11:14:36;97134.65;;;9.69;70.07
58223;BME280;44020;50.890;15.796;2023-12-29T11:17:05;97131.53;;;9.68;69.87
58223;BME280;44020;50.890;15.796;2023-12-29T11:19:33;97133.81;;;9.69;70.00
58223;BME280;44020;50.890;15.796;2023-12-29T11:22:02;97133.84;;;9.73;70.07
58223;BME280;44020;50.890;15.796;2023-12-29T11:24:30;97137.60;;;9.79;69.95
58223;BME280;44020;50.890;15.796;2023-12-29T11:26:58;97128.11;;;9.86;69.71
58223;BME280;44020;50.890;15.796;2023-12-29T11:29:25;97131.95;;;9.93;69.79
58223;BME280;44020;50.890;15.796;2023-12-29T11:31:53;97125.70;;;10.03;69.99
58223;BME280;44020;50.890;15.796;2023-12-29T11:34:35;97122.77;;;10.13;69.43
58223;BME280;44020;50.890;15.796;2023-12-29T11:37:18;97112.73;;;10.21;69.20
58223;BME280;44020;50.890;15.796;2023-12-29T11:40:14;97116.23;;;10.29;68.76
58223;BME280;44020;50.890;15.796;2023-12-29T11:42:44;97115.58;;;10.33;68.46
58223;BME280;44020;50.890;15.796;2023-12-29T11:45:35;97113.66;;;10.35;68.97
58223;BME280;44020;50.890;15.796;2023-12-29T11:48:03;97119.80;;;10.35;67.94
58223;BME280;44020;50.890;15.796;2023-12-29T11:50:36;97125.60;;;10.34;68.18
58223;BME280;44020;50.890;15.796;2023-12-29T11:53:04;97133.70;;;10.33;68.10
58223;BME280;44020;50.890;15.796;2023-12-29T11:55:36;97137.56;;;10.31;68.09
58223;BME280;44020;50.890;15.796;2023-12-29T11:58:23;97138.18;;;10.30;68.35
58223;BME280;44020;50.890;15.796;2023-12-29T12:00:50;97134.35;;;10.24;67.98
58223;BME280;44020;50.890;15.796;2023-12-29T12:03:24;97129.40;;;10.19;68.49
58223;BME280;44020;50.890;15.796;2023-12-29T12:05:53;97132.10;;;10.16;68.41
58223;BME280;44020;50.890;15.796;2023-12-29T12:08:31;97131.19;;;10.17;68.49
58223;BME280;44020;50.890;15.796;2023-12-29T12:14:02;97134.77;;;10.18;68.65
58223;BME280;44020;50.890;15.796;2023-12-29T12:19:09;97130.31;;;10.17;68.54
58223;BME280;44020;50.890;15.796;2023-12-29T12:21:40;97121.08;;;10.16;68.79
58223;BME280;44020;50.890;15.796;2023-12-29T12:24:07;97114.81;;;10.15;68.66
58223;BME280;44020;50.890;15.796;2023-12-29T12:26:35;97110.39;;;10.17;69.00
58223;BME280;44020;50.890;15.796;2023-12-29T12:29:03;97107.27;;;10.18;68.75
58223;BME280;44020;50.890;15.796;2023-12-29T12:31:31;97102.91;;;10.17;68.43
58223;BME280;44020;50.890;15.796;2023-12-29T12:33:59;97100.80;;;10.17;68.50
58223;BME280;44020;50.890;15.796;2023-12-29T12:36:29;97104.48;;;10.17;68.78
58223;BME280;44020;50.890;15.796;2023-12-29T12:38:57;97109.55;;;10.21;68.65
58223;BME280;44020;50.890;15.796;2023-12-29T12:41:25;97099.88;;;10.25;68.51
58223;BME280;44020;50.890;15.796;2023-12-29T12:44:12;97099.45;;;10.25;68.47
58223;BME280;44020;50.890;15.796;2023-12-29T12:46:59;97096.07;;;10.26;68.06
58223;BME280;44020;50.890;15.796;2023-12-29T12:49:29;97102.99;;;10.28;67.82
58223;BME280;44020;50.890;15.796;2023-12-29T12:51:57;97108.64;;;10.26;67.55
58223;BME280;44020;50.890;15.796;2023-12-29T12:54:24;97107.59;;;10.23;67.45
58223;BME280;44020;50.890;15.796;2023-12-29T12:56:52;97105.65;;;10.20;67.64
58223;BME280;44020;50.890;15.796;2023-12-29T12:59:19;97110.40;;;10.24;67.74
58223;BME280;44020;50.890;15.796;2023-12-29T13:01:48;97113.06;;;10.24;67.61
58223;BME280;44020;50.890;15.796;2023-12-29T13:04:16;97115.11;;;10.25;67.86
58223;BME280;44020;50.890;15.796;2023-12-29T13:06:43;97117.71;;;10.24;67.25
58223;BME280;44020;50.890;15.796;2023-12-29T13:09:11;97109.61;;;10.23;67.54
58223;BME280;44020;50.890;15.796;2023-12-29T13:11:39;97109.85;;;10.24;67.71
58223;BME280;44020;50.890;15.796;2023-12-29T13:14:19;97102.96;;;10.26;67.78
58223;BME280;44020;50.890;15.796;2023-12-29T13:16:47;97102.70;;;10.27;67.72